TAF Text Data
IDs:
Format:
Raw Decoded Include METAR

Data at: 2024 UTC 01 Oct 2022

Region: TOP
KATL 011946Z 0120/0224 33016G26KT P6SM FEW050
  FM020100 34011G18KT P6SM SKC
  FM020700 33007KT P6SM SKC
  FM021600 34011KT P6SM SKC


KBOS 011923Z 0119/0224 03012KT P6SM BKN025
  FM020900 03015G29KT P6SM OVC025
  FM021500 04017G33KT P6SM BKN035


KBWI 011720Z 0118/0224 06014G21KT P6SM VCSH OVC008
  TEMPO 0118/0121 3SM SHRADZ
  FM012200 05009KT 6SM BR VCSH OVC007
  FM020200 05005KT P6SM VCSH OVC005
  FM021200 04010G16KT 6SM -SHRA BR OVC006
  FM021500 03015G25KT 5SM SHRA BR OVC008


KCLE 011920Z 0119/0224 03018G26KT P6SM SCT020 OVC180
  FM012300 03012KT P6SM BKN200
  FM020800 03014G22KT P6SM BKN025
  FM021500 03014G24KT P6SM BKN035
  FM022200 04010KT P6SM FEW040


KCLT 011946Z 0120/0224 32006KT P6SM FEW035 BKN050
  TEMPO 0120/0123 SCT035 BKN060
  FM012300 33005KT P6SM BKN050
  FM020200 33004KT P6SM SCT050 BKN110
  FM021000 32005KT P6SM BKN060
  FM021500 35010G16KT P6SM BKN045


KCVG 011737Z 0118/0224 02015G22KT P6SM FEW100 BKN250
  FM020000 01009KT P6SM SCT250
  FM021200 02012KT P6SM SCT025
  FM021400 03015G24KT P6SM BKN035
  FM022300 03010KT P6SM FEW250


KDCA 011720Z 0118/0224 05012G20KT P6SM VCSH OVC008
  TEMPO 0118/0121 3SM SHRADZ
  FM012200 04009KT P6SM VCSH OVC006
  FM020100 02008KT P6SM VCSH OVC005
  FM021200 01011G18KT 6SM -SHRA BR OVC006
  FM021600 02015G25KT 5SM SHRA BR OVC008


KDEN 011730Z 0118/0224 10006KT P6SM SCT070 BKN120
  FM012000 11012KT P6SM VCSH SCT050 OVC100
  TEMPO 0121/0201 VRB20G40KT TSRA BKN035CB
  FM020200 VRB05KT P6SM VCSH SCT060 OVC120
  FM020700 21009KT P6SM FEW020 SCT100
  FM021400 VRB06KT P6SM FEW020 BKN120
  FM021900 21007KT P6SM VCSH SCT060 BKN120
  PROB30 0220/0224 VRB15G25KT -TSRA BKN050CB


KDFW 011720Z 0118/0224 10007KT P6SM SKC

KDTW 011728Z 0118/0224 02012G20KT P6SM BKN250
  FM012200 03012KT P6SM FEW100 SCT250
  FM020800 03010KT P6SM SCT020
  FM021500 03011G18KT P6SM SKC


KEWR 012006Z 0120/0224 02013G18KT P6SM FEW007 BKN012
  TEMPO 0121/0122 3SM -SHRA BR BKN007
  FM020700 02015G21KT P6SM OVC015
  FM021000 02016G23KT P6SM VCSH OVC025
  FM021500 02015G21KT 6SM -RA BR OVC015
  FM021900 03016G22KT 6SM -RA BR OVC025


KFLL 011720Z 0118/0224 04010KT P6SM SCT030 BKN050
  FM020000 VRB05KT P6SM FEW030 SCT250
  FM021300 33005KT P6SM FEW030 SCT250
  FM021700 05010KT P6SM SCT030 SCT050


KIAD 011720Z 0118/0224 05010G18KT P6SM VCSH OVC008
  TEMPO 0118/0121 3SM SHRADZ
  FM012200 04008KT P6SM VCSH OVC006
  FM020100 01007KT P6SM VCSH OVC005
  FM021100 36010G16KT 6SM -SHRA BR OVC006
  FM021500 02012G20KT 5SM SHRA BR OVC008


KIAH 011720Z 0118/0224 07005KT P6SM SKC
  FM012300 10006KT P6SM SKC
  FM020300 VRB03KT P6SM SKC
  FM021500 05006KT P6SM FEW250


KJFK 012006Z 0120/0224 04015G21KT P6SM OVC010
  TEMPO 0120/0121 3SM SHRA BR OVC009
  FM012300 04015G21KT P6SM OVC010
  TEMPO 0202/0205 OVC009
  FM020700 03016G23KT P6SM OVC015
  FM021000 03016G23KT P6SM OVC015
  FM021500 04018G26KT P6SM VCSH OVC025
  FM022000 04018G26KT P6SM VCSH OVC035


KLAS 011720Z 0118/0224 07008KT P6SM FEW150
  FM012200 19011G18KT P6SM FEW150
  FM020200 22008KT P6SM SKC
  FM021100 VRB06KT P6SM SKC
  FM021800 20010G16KT P6SM FEW150


KLAX 011745Z 0118/0224 10004KT P6SM OVC024
  FM012000 26010KT P6SM SCT030
  FM020300 24008KT P6SM OVC018
  FM020600 VRB03KT P6SM OVC015
  FM021000 VRB03KT P6SM OVC025
  FM021900 26008KT P6SM SCT030
  FM022100 26012KT P6SM SKC


KLGA 012006Z 0120/0224 06019G25KT P6SM BKN009
  FM012300 04015G22KT P6SM BKN009
  FM020200 04015G22KT P6SM VCSH OVC015
  FM021000 04019G26KT P6SM VCSH OVC025
  FM021500 05020G27KT P6SM VCSH OVC015
  FM022000 05020G27KT P6SM VCSH OVC040


KMCO 011739Z 0118/0224 VRB05KT P6SM FEW040
  FM021400 30007KT P6SM SKC


KMDW 011728Z 0118/0224 04012G21KT P6SM FEW250
  FM012300 02008KT P6SM FEW250
  FM021100 06009KT P6SM BKN015
  FM021600 04010KT P6SM BKN022
  FM021800 04011KT P6SM SCT030 SCT250


KMEM 011728Z 0118/0224 01010KT P6SM SKC
  FM020100 03005KT P6SM SKC
  FM021600 03010KT P6SM SKC


KMIA 011720Z 0118/0224 04008KT P6SM SCT035 BKN050
  FM020000 VRB03KT P6SM FEW030 SCT250
  FM021300 33005KT P6SM FEW030 SCT250
  FM021700 05008KT P6SM SCT030 SCT050


KMSP 011720Z 0118/0224 10005KT P6SM BKN150
  FM021400 14006KT P6SM BKN250


KORD 011728Z 0118/0224 04012G21KT P6SM FEW250
  FM012300 02008KT P6SM FEW250
  FM021100 06009KT P6SM BKN015
  FM021600 04010KT P6SM BKN022
  FM021800 04011KT P6SM SCT030 SCT250


KPDX 011720Z 0118/0218 07009KT P6SM SKC
  FM012000 08012G22KT P6SM SKC
  FM020100 06007KT P6SM SKC
  FM020900 34005KT P6SM SKC


KPHL 011728Z 0118/0224 05013G21KT P6SM VCSH OVC008
  FM020300 04010KT P6SM OVC015
  FM021300 04013G24KT 3SM -RA BR OVC015
  FM022200 04014G25KT 1SM -RA BR OVC025


KPHX 011720Z 0118/0224 15007KT P6SM SKC
  FM012000 19006KT P6SM FEW120 FEW250
  FM012200 25006KT P6SM FEW120 FEW250
  FM020600 20008KT P6SM FEW080 SCT120 SCT250
  FM021100 10006KT P6SM FEW120 FEW250


KPIT 011811Z 0118/0224 02010KT 5SM -RA OVC025
  FM012200 02010G20KT 3SM -RA BR OVC015
  FM020400 02010G18KT 5SM -RA BR OVC008
  FM021000 01007KT P6SM VCSH OVC020
  FM022200 04006KT P6SM BKN045


KSAN 011737Z 0118/0224 VRB03KT P6SM BKN025
  FM011900 27009KT P6SM SCT025
  TEMPO 0119/0121 BKN025
  FM020200 VRB04KT P6SM BKN022
  FM021900 28010KT P6SM SCT025


KSEA 011720Z 0118/0224 36012KT P6SM SKC
  FM020200 01008KT P6SM FEW250
  FM021500 02003KT P6SM FEW250


KSFO 011729Z 0118/0224 29009KT P6SM SCT015
  TEMPO 0118/0119 BKN015
  FM012100 28012G22KT P6SM SKC
  FM020500 28012KT P6SM SCT010
  FM020900 28007KT P6SM BKN008
  FM021800 29008KT P6SM SCT010
  FM022100 29015KT P6SM SKC


KSLC 011732Z 0118/0224 33009KT P6SM FEW080 SCT200
  FM020700 14004KT P6SM FEW130
  FM021700 33009KT P6SM SCT150 SCT250


KSTL 011720Z 0118/0224 04007KT P6SM SKC

KTPA 011729Z 0118/0224 28006KT P6SM FEW040
  FM012200 33007KT P6SM SCT050
  FM020300 VRB03KT P6SM SKC
  FM021500 33005KT P6SM SKC
  FM021700 30007KT P6SM FEW250